sensor_id;sensor_type;location;lat;lon;timestamp;temperature;humidity
23188;DHT22;11762;59.878;17.686;2023-04-24T00:01:34;2.80;99.90
23188;DHT22;11762;59.878;17.686;2023-04-24T00:04:03;2.70;99.90
23188;DHT22;11762;59.878;17.686;2023-04-24T00:06:31;2.70;99.90
23188;DHT22;11762;59.878;17.686;2023-04-24T00:08:59;2.70;99.90
23188;DHT22;11762;59.878;17.686;2023-04-24T00:11:27;2.70;99.90
23188;DHT22;11762;59.878;17.686;2023-04-24T00:13:54;2.70;99.90
23188;DHT22;11762;59.878;17.686;2023-04-24T00:16:22;2.70;99.90
23188;DHT22;11762;59.878;17.686;2023-04-24T00:18:49;2.70;99.90
23188;DHT22;11762;59.878;17.686;2023-04-24T00:21:19;2.70;99.90
23188;DHT22;11762;59.878;17.686;2023-04-24T00:23:47;2.70;99.90
23188;DHT22;11762;59.878;17.686;2023-04-24T00:26:14;2.70;99.90
23188;DHT22;11762;59.878;17.686;2023-04-24T00:28:41;2.70;99.90
23188;DHT22;11762;59.878;17.686;2023-04-24T00:31:08;2.70;99.90
23188;DHT22;11762;59.878;17.686;2023-04-24T00:33:36;2.70;99.90
23188;DHT22;11762;59.878;17.686;2023-04-24T00:36:03;2.70;99.90
23188;DHT22;11762;59.878;17.686;2023-04-24T00:38:31;2.70;99.90
23188;DHT22;11762;59.878;17.686;2023-04-24T00:40:58;2.70;99.90
23188;DHT22;11762;59.878;17.686;2023-04-24T00:43:26;2.70;99.90
23188;DHT22;11762;59.878;17.686;2023-04-24T00:45:53;2.70;99.90
23188;DHT22;11762;59.878;17.686;2023-04-24T00:48:20;2.70;99.90
23188;DHT22;11762;59.878;17.686;2023-04-24T00:50:47;2.70;99.90
23188;DHT22;11762;59.878;17.686;2023-04-24T00:53:15;2.70;99.90
23188;DHT22;11762;59.878;17.686;2023-04-24T00:55:43;2.70;99.90
23188;DHT22;11762;59.878;17.686;2023-04-24T00:58:11;2.70;99.90
23188;DHT22;11762;59.878;17.686;2023-04-24T01:00:38;2.70;99.90
23188;DHT22;11762;59.878;17.686;2023-04-24T01:03:07;2.70;99.90
23188;DHT22;11762;59.878;17.686;2023-04-24T01:05:34;2.80;99.90
23188;DHT22;11762;59.878;17.686;2023-04-24T01:08:01;2.90;99.90
23188;DHT22;11762;59.878;17.686;2023-04-24T01:10:30;2.90;99.90
23188;DHT22;11762;59.878;17.686;2023-04-24T01:12:59;2.80;99.90
23188;DHT22;11762;59.878;17.686;2023-04-24T01:15:26;2.80;99.90
23188;DHT22;11762;59.878;17.686;2023-04-24T01:17:53;2.80;99.90
23188;DHT22;11762;59.878;17.686;2023-04-24T01:20:21;2.70;99.90
23188;DHT22;11762;59.878;17.686;2023-04-24T01:22:51;2.70;99.90
23188;DHT22;11762;59.878;17.686;2023-04-24T01:25:18;2.80;99.90
23188;DHT22;11762;59.878;17.686;2023-04-24T01:27:45;2.80;99.90
23188;DHT22;11762;59.878;17.686;2023-04-24T01:30:13;2.80;99.90
23188;DHT22;11762;59.878;17.686;2023-04-24T01:32:42;2.80;99.90
23188;DHT22;11762;59.878;17.686;2023-04-24T01:35:10;2.80;99.90
23188;DHT22;11762;59.878;17.686;2023-04-24T01:37:37;2.70;99.90
23188;DHT22;11762;59.878;17.686;2023-04-24T01:40:07;2.70;99.90
23188;DHT22;11762;59.878;17.686;2023-04-24T01:42:34;2.60;99.90
23188;DHT22;11762;59.878;17.686;2023-04-24T01:45:03;2.60;99.90
23188;DHT22;11762;59.878;17.686;2023-04-24T01:47:31;2.60;99.90
23188;DHT22;11762;59.878;17.686;2023-04-24T01:49:58;2.60;99.90
23188;DHT22;11762;59.878;17.686;2023-04-24T01:52:26;2.60;99.90
23188;DHT22;11762;59.878;17.686;2023-04-24T01:54:54;2.60;99.90
23188;DHT22;11762;59.878;17.686;2023-04-24T01:57:23;2.50;99.90
23188;DHT22;11762;59.878;17.686;2023-04-24T01:59:51;2.50;99.90
23188;DHT22;11762;59.878;17.686;2023-04-24T02:02:18;2.50;99.90
23188;DHT22;11762;59.878;17.686;2023-04-24T02:04:46;2.50;99.90
23188;DHT22;11762;59.878;17.686;2023-04-24T02:07:13;2.40;99.90
23188;DHT22;11762;59.878;17.686;2023-04-24T02:09:40;2.40;99.90
23188;DHT22;11762;59.878;17.686;2023-04-24T02:12:07;2.50;99.90
23188;DHT22;11762;59.878;17.686;2023-04-24T02:14:36;2.50;99.90
23188;DHT22;11762;59.878;17.686;2023-04-24T02:17:03;2.50;99.90
23188;DHT22;11762;59.878;17.686;2023-04-24T02:19:30;2.40;99.90
23188;DHT22;11762;59.878;17.686;2023-04-24T02:21:58;2.40;99.90
23188;DHT22;11762;59.878;17.686;2023-04-24T02:24:25;2.40;99.90
23188;DHT22;11762;59.878;17.686;2023-04-24T02:26:52;2.40;99.90
23188;DHT22;11762;59.878;17.686;2023-04-24T02:29:19;2.40;99.90
23188;DHT22;11762;59.878;17.686;2023-04-24T02:31:47;2.30;99.90
23188;DHT22;11762;59.878;17.686;2023-04-24T02:34:16;2.30;99.90
23188;DHT22;11762;59.878;17.686;2023-04-24T02:36:43;2.20;99.90
23188;DHT22;11762;59.878;17.686;2023-04-24T02:39:10;2.20;99.90
23188;DHT22;11762;59.878;17.686;2023-04-24T02:41:37;2.20;99.90
23188;DHT22;11762;59.878;17.686;2023-04-24T02:44:04;2.10;99.90
23188;DHT22;11762;59.878;17.686;2023-04-24T02:46:31;2.10;99.90
23188;DHT22;11762;59.878;17.686;2023-04-24T02:48:59;2.10;99.90
23188;DHT22;11762;59.878;17.686;2023-04-24T02:51:26;2.10;99.90
23188;DHT22;11762;59.878;17.686;2023-04-24T02:53:53;2.00;99.90
23188;DHT22;11762;59.878;17.686;2023-04-24T02:56:21;2.00;99.90
23188;DHT22;11762;59.878;17.686;2023-04-24T02:58:48;2.00;99.90
23188;DHT22;11762;59.878;17.686;2023-04-24T03:01:15;2.00;99.90
23188;DHT22;11762;59.878;17.686;2023-04-24T03:03:42;2.00;99.90
23188;DHT22;11762;59.878;17.686;2023-04-24T03:06:10;2.00;99.90
23188;DHT22;11762;59.878;17.686;2023-04-24T03:08:37;2.00;99.90
23188;DHT22;11762;59.878;17.686;2023-04-24T03:11:04;2.00;99.90
23188;DHT22;11762;59.878;17.686;2023-04-24T03:13:31;2.00;99.90
23188;DHT22;11762;59.878;17.686;2023-04-24T03:15:58;1.90;99.90
23188;DHT22;11762;59.878;17.686;2023-04-24T03:18:25;1.90;99.90
23188;DHT22;11762;59.878;17.686;2023-04-24T03:20:52;1.90;99.90
23188;DHT22;11762;59.878;17.686;2023-04-24T03:23:21;1.90;99.90
23188;DHT22;11762;59.878;17.686;2023-04-24T03:25:47;1.80;99.90
23188;DHT22;11762;59.878;17.686;2023-04-24T03:28:15;1.80;99.90
23188;DHT22;11762;59.878;17.686;2023-04-24T03:30:41;1.90;99.90
23188;DHT22;11762;59.878;17.686;2023-04-24T03:33:08;1.80;99.90
23188;DHT22;11762;59.878;17.686;2023-04-24T03:35:36;1.80;99.90
23188;DHT22;11762;59.878;17.686;2023-04-24T03:38:03;1.80;99.90
23188;DHT22;11762;59.878;17.686;2023-04-24T03:40:32;1.80;99.90
23188;DHT22;11762;59.878;17.686;2023-04-24T03:42:59;1.80;99.90
23188;DHT22;11762;59.878;17.686;2023-04-24T03:45:27;1.70;99.90
23188;DHT22;11762;59.878;17.686;2023-04-24T03:47:54;1.70;99.90
23188;DHT22;11762;59.878;17.686;2023-04-24T03:50:21;1.80;99.90
23188;DHT22;11762;59.878;17.686;2023-04-24T03:52:48;1.80;99.90
23188;DHT22;11762;59.878;17.686;2023-04-24T03:55:15;1.90;99.90
23188;DHT22;11762;59.878;17.686;2023-04-24T03:57:44;1.80;99.90
23188;DHT22;11762;59.878;17.686;2023-04-24T04:00:12;1.80;99.90
23188;DHT22;11762;59.878;17.686;2023-04-24T04:02:39;1.80;99.90
23188;DHT22;11762;59.878;17.686;2023-04-24T04:05:07;1.80;99.90
23188;DHT22;11762;59.878;17.686;2023-04-24T04:07:34;1.80;99.90
23188;DHT22;11762;59.878;17.686;2023-04-24T04:10:01;1.90;99.90
23188;DHT22;11762;59.878;17.686;2023-04-24T04:12:29;1.90;99.90
23188;DHT22;11762;59.878;17.686;2023-04-24T04:14:57;1.80;99.90
23188;DHT22;11762;59.878;17.686;2023-04-24T04:17:24;1.90;99.90
23188;DHT22;11762;59.878;17.686;2023-04-24T04:19:51;1.80;99.90
23188;DHT22;11762;59.878;17.686;2023-04-24T04:22:18;1.80;99.90
23188;DHT22;11762;59.878;17.686;2023-04-24T04:24:45;1.90;99.90
23188;DHT22;11762;59.878;17.686;2023-04-24T04:27:12;1.80;99.90
23188;DHT22;11762;59.878;17.686;2023-04-24T04:29:39;1.90;99.90
23188;DHT22;11762;59.878;17.686;2023-04-24T04:32:08;1.90;99.90
23188;DHT22;11762;59.878;17.686;2023-04-24T04:34:35;1.90;99.90
23188;DHT22;11762;59.878;17.686;2023-04-24T04:37:03;1.90;99.90
23188;DHT22;11762;59.878;17.686;2023-04-24T04:39:30;1.90;99.90
23188;DHT22;11762;59.878;17.686;2023-04-24T04:41:57;1.90;99.90
23188;DHT22;11762;59.878;17.686;2023-04-24T04:44:24;1.90;99.90
23188;DHT22;11762;59.878;17.686;2023-04-24T04:46:53;1.90;99.90
23188;DHT22;11762;59.878;17.686;2023-04-24T04:49:23;1.90;99.90
23188;DHT22;11762;59.878;17.686;2023-04-24T04:51:50;2.00;99.90
23188;DHT22;11762;59.878;17.686;2023-04-24T04:54:17;1.90;99.90
23188;DHT22;11762;59.878;17.686;2023-04-24T04:56:44;2.00;99.90
23188;DHT22;11762;59.878;17.686;2023-04-24T04:59:11;2.00;99.90
23188;DHT22;11762;59.878;17.686;2023-04-24T05:01:39;2.00;99.90
23188;DHT22;11762;59.878;17.686;2023-04-24T05:04:06;2.10;99.90
23188;DHT22;11762;59.878;17.686;2023-04-24T05:06:34;2.10;99.90
23188;DHT22;11762;59.878;17.686;2023-04-24T05:09:01;2.00;99.90
23188;DHT22;11762;59.878;17.686;2023-04-24T05:11:29;2.00;99.90
23188;DHT22;11762;59.878;17.686;2023-04-24T05:13:56;2.00;99.90
23188;DHT22;11762;59.878;17.686;2023-04-24T05:16:23;2.00;99.90
23188;DHT22;11762;59.878;17.686;2023-04-24T05:18:50;2.00;99.90
23188;DHT22;11762;59.878;17.686;2023-04-24T05:21:18;2.10;99.90
23188;DHT22;11762;59.878;17.686;2023-04-24T05:23:46;2.00;99.90
23188;DHT22;11762;59.878;17.686;2023-04-24T05:26:13;2.00;99.90
23188;DHT22;11762;59.878;17.686;2023-04-24T05:28:41;2.00;99.90
23188;DHT22;11762;59.878;17.686;2023-04-24T05:31:08;2.10;99.90
23188;DHT22;11762;59.878;17.686;2023-04-24T05:33:35;2.00;99.90
23188;DHT22;11762;59.878;17.686;2023-04-24T05:36:03;2.00;99.90
23188;DHT22;11762;59.878;17.686;2023-04-24T05:38:31;2.00;99.90
23188;DHT22;11762;59.878;17.686;2023-04-24T05:40:59;2.00;99.90
23188;DHT22;11762;59.878;17.686;2023-04-24T05:43:27;1.90;99.90
23188;DHT22;11762;59.878;17.686;2023-04-24T05:45:54;2.00;99.90
23188;DHT22;11762;59.878;17.686;2023-04-24T05:48:21;2.00;99.90
23188;DHT22;11762;59.878;17.686;2023-04-24T05:50:49;2.00;99.90
23188;DHT22;11762;59.878;17.686;2023-04-24T05:53:16;2.10;99.90
23188;DHT22;11762;59.878;17.686;2023-04-24T05:55:43;2.00;99.90
23188;DHT22;11762;59.878;17.686;2023-04-24T05:58:12;2.00;99.90
23188;DHT22;11762;59.878;17.686;2023-04-24T06:00:39;2.10;99.90
23188;DHT22;11762;59.878;17.686;2023-04-24T06:03:08;2.00;99.90
23188;DHT22;11762;59.878;17.686;2023-04-24T06:05:35;2.20;99.90
23188;DHT22;11762;59.878;17.686;2023-04-24T06:08:02;2.10;99.90
23188;DHT22;11762;59.878;17.686;2023-04-24T06:10:29;2.10;99.90
23188;DHT22;11762;59.878;17.686;2023-04-24T06:12:57;2.10;99.90
23188;DHT22;11762;59.878;17.686;2023-04-24T06:15:28;2.20;99.90
23188;DHT22;11762;59.878;17.686;2023-04-24T06:17:56;2.10;99.90
23188;DHT22;11762;59.878;17.686;2023-04-24T06:20:23;2.10;99.90
23188;DHT22;11762;59.878;17.686;2023-04-24T06:22:50;2.20;99.90
23188;DHT22;11762;59.878;17.686;2023-04-24T06:25:17;2.20;99.90
23188;DHT22;11762;59.878;17.686;2023-04-24T06:27:44;2.10;99.90
23188;DHT22;11762;59.878;17.686;2023-04-24T06:30:12;2.10;99.90
23188;DHT22;11762;59.878;17.686;2023-04-24T06:32:40;2.00;99.90
23188;DHT22;11762;59.878;17.686;2023-04-24T06:35:08;2.10;99.90
23188;DHT22;11762;59.878;17.686;2023-04-24T06:37:37;2.10;99.90
23188;DHT22;11762;59.878;17.686;2023-04-24T06:40:05;2.10;99.90
23188;DHT22;11762;59.878;17.686;2023-04-24T06:42:32;2.10;99.90
23188;DHT22;11762;59.878;17.686;2023-04-24T06:45:00;2.20;99.90
23188;DHT22;11762;59.878;17.686;2023-04-24T06:47:27;2.20;99.90
23188;DHT22;11762;59.878;17.686;2023-04-24T06:49:56;2.20;99.90
23188;DHT22;11762;59.878;17.686;2023-04-24T06:52:23;2.20;99.90
23188;DHT22;11762;59.878;17.686;2023-04-24T06:54:50;2.30;99.90
23188;DHT22;11762;59.878;17.686;2023-04-24T06:57:17;2.40;99.90
23188;DHT22;11762;59.878;17.686;2023-04-24T06:59:44;2.40;99.90
23188;DHT22;11762;59.878;17.686;2023-04-24T07:02:11;2.30;99.90
23188;DHT22;11762;59.878;17.686;2023-04-24T07:04:38;2.40;99.90
23188;DHT22;11762;59.878;17.686;2023-04-24T07:07:07;2.30;99.90
23188;DHT22;11762;59.878;17.686;2023-04-24T07:09:35;2.40;99.90
23188;DHT22;11762;59.878;17.686;2023-04-24T07:12:04;2.40;99.90
23188;DHT22;11762;59.878;17.686;2023-04-24T07:14:31;2.50;99.90
23188;DHT22;11762;59.878;17.686;2023-04-24T07:16:58;2.50;99.90
23188;DHT22;11762;59.878;17.686;2023-04-24T07:19:25;2.50;99.90
23188;DHT22;11762;59.878;17.686;2023-04-24T07:21:52;2.50;99.90
23188;DHT22;11762;59.878;17.686;2023-04-24T07:24:22;2.60;99.90
23188;DHT22;11762;59.878;17.686;2023-04-24T07:26:49;2.70;99.90
23188;DHT22;11762;59.878;17.686;2023-04-24T07:29:17;2.60;99.90
23188;DHT22;11762;59.878;17.686;2023-04-24T07:31:45;2.50;99.90
23188;DHT22;11762;59.878;17.686;2023-04-24T07:34:12;2.60;99.90
23188;DHT22;11762;59.878;17.686;2023-04-24T07:36:39;2.70;99.90
23188;DHT22;11762;59.878;17.686;2023-04-24T07:39:07;2.50;99.90
23188;DHT22;11762;59.878;17.686;2023-04-24T07:41:36;2.70;99.90
23188;DHT22;11762;59.878;17.686;2023-04-24T07:44:03;2.80;99.90
23188;DHT22;11762;59.878;17.686;2023-04-24T07:46:30;2.70;99.90
23188;DHT22;11762;59.878;17.686;2023-04-24T07:48:58;2.70;99.90
23188;DHT22;11762;59.878;17.686;2023-04-24T07:51:26;2.80;99.90
23188;DHT22;11762;59.878;17.686;2023-04-24T07:53:54;2.60;99.90
23188;DHT22;11762;59.878;17.686;2023-04-24T07:56:21;2.60;99.90
23188;DHT22;11762;59.878;17.686;2023-04-24T07:58:50;2.70;99.90
23188;DHT22;11762;59.878;17.686;2023-04-24T08:01:17;2.80;99.90
23188;DHT22;11762;59.878;17.686;2023-04-24T08:03:44;2.50;99.90
23188;DHT22;11762;59.878;17.686;2023-04-24T08:06:11;2.50;99.90
23188;DHT22;11762;59.878;17.686;2023-04-24T08:08:38;2.50;99.90
23188;DHT22;11762;59.878;17.686;2023-04-24T08:11:05;2.60;99.90
23188;DHT22;11762;59.878;17.686;2023-04-24T08:13:32;2.60;99.90
23188;DHT22;11762;59.878;17.686;2023-04-24T08:16:01;2.70;99.90
23188;DHT22;11762;59.878;17.686;2023-04-24T08:18:28;2.50;99.90
23188;DHT22;11762;59.878;17.686;2023-04-24T08:20:55;2.80;99.90
23188;DHT22;11762;59.878;17.686;2023-04-24T08:23:26;2.70;99.90
23188;DHT22;11762;59.878;17.686;2023-04-24T08:25:54;2.90;99.90
23188;DHT22;11762;59.878;17.686;2023-04-24T08:28:22;2.90;99.90
23188;DHT22;11762;59.878;17.686;2023-04-24T08:30:49;3.10;99.90
23188;DHT22;11762;59.878;17.686;2023-04-24T08:33:22;3.00;99.90
23188;DHT22;11762;59.878;17.686;2023-04-24T08:35:49;2.90;99.90
23188;DHT22;11762;59.878;17.686;2023-04-24T08:38:16;2.80;99.90
23188;DHT22;11762;59.878;17.686;2023-04-24T08:40:43;2.80;99.90
23188;DHT22;11762;59.878;17.686;2023-04-24T08:43:12;2.80;99.90
23188;DHT22;11762;59.878;17.686;2023-04-24T08:45:40;2.80;99.90
23188;DHT22;11762;59.878;17.686;2023-04-24T08:48:07;2.80;99.90
23188;DHT22;11762;59.878;17.686;2023-04-24T08:50:37;3.00;99.90
23188;DHT22;11762;59.878;17.686;2023-04-24T08:53:07;2.90;99.90
23188;DHT22;11762;59.878;17.686;2023-04-24T08:55:35;2.90;99.90
23188;DHT22;11762;59.878;17.686;2023-04-24T08:58:04;2.90;99.90
23188;DHT22;11762;59.878;17.686;2023-04-24T09:00:31;2.80;99.90
23188;DHT22;11762;59.878;17.686;2023-04-24T09:03:00;3.10;99.90
23188;DHT22;11762;59.878;17.686;2023-04-24T09:05:29;3.10;99.90
23188;DHT22;11762;59.878;17.686;2023-04-24T09:07:57;3.10;99.90
23188;DHT22;11762;59.878;17.686;2023-04-24T09:10:26;3.10;99.90
23188;DHT22;11762;59.878;17.686;2023-04-24T09:12:56;3.10;99.90
23188;DHT22;11762;59.878;17.686;2023-04-24T09:15:27;2.90;99.90
23188;DHT22;11762;59.878;17.686;2023-04-24T09:17:55;3.00;99.90
23188;DHT22;11762;59.878;17.686;2023-04-24T09:20:23;3.00;99.90
23188;DHT22;11762;59.878;17.686;2023-04-24T09:22:54;3.00;99.90
23188;DHT22;11762;59.878;17.686;2023-04-24T09:25:25;3.10;99.90
23188;DHT22;11762;59.878;17.686;2023-04-24T09:28:00;3.20;99.90
23188;DHT22;11762;59.878;17.686;2023-04-24T09:30:28;3.40;99.90
23188;DHT22;11762;59.878;17.686;2023-04-24T09:33:10;3.40;99.90
23188;DHT22;11762;59.878;17.686;2023-04-24T09:35:40;3.40;99.90
23188;DHT22;11762;59.878;17.686;2023-04-24T09:38:08;3.20;99.90
23188;DHT22;11762;59.878;17.686;2023-04-24T09:40:36;3.10;99.90
23188;DHT22;11762;59.878;17.686;2023-04-24T09:43:04;3.10;99.90
23188;DHT22;11762;59.878;17.686;2023-04-24T09:45:36;3.10;99.90
23188;DHT22;11762;59.878;17.686;2023-04-24T09:48:03;3.20;99.90
23188;DHT22;11762;59.878;17.686;2023-04-24T09:50:32;3.30;99.90
23188;DHT22;11762;59.878;17.686;2023-04-24T09:53:03;3.40;99.90
23188;DHT22;11762;59.878;17.686;2023-04-24T09:55:32;3.30;99.90
23188;DHT22;11762;59.878;17.686;2023-04-24T09:58:01;3.40;99.90
23188;DHT22;11762;59.878;17.686;2023-04-24T10:00:32;3.30;99.90
23188;DHT22;11762;59.878;17.686;2023-04-24T10:03:00;3.40;99.90
23188;DHT22;11762;59.878;17.686;2023-04-24T10:05:29;3.40;99.90
23188;DHT22;11762;59.878;17.686;2023-04-24T10:07:57;3.50;99.90
23188;DHT22;11762;59.878;17.686;2023-04-24T10:10:24;3.50;99.90
23188;DHT22;11762;59.878;17.686;2023-04-24T10:12:52;3.50;99.90
23188;DHT22;11762;59.878;17.686;2023-04-24T10:15:21;3.40;99.90
23188;DHT22;11762;59.878;17.686;2023-04-24T10:17:49;3.30;99.90
23188;DHT22;11762;59.878;17.686;2023-04-24T10:20:20;3.30;99.90
23188;DHT22;11762;59.878;17.686;2023-04-24T10:22:48;3.40;99.90
23188;DHT22;11762;59.878;17.686;2023-04-24T10:25:18;3.50;99.90
23188;DHT22;11762;59.878;17.686;2023-04-24T10:27:47;3.40;99.90
23188;DHT22;11762;59.878;17.686;2023-04-24T10:30:15;3.60;99.90
23188;DHT22;11762;59.878;17.686;2023-04-24T10:32:43;3.50;99.90
23188;DHT22;11762;59.878;17.686;2023-04-24T10:35:13;3.50;99.90
23188;DHT22;11762;59.878;17.686;2023-04-24T10:37:43;3.50;99.90
23188;DHT22;11762;59.878;17.686;2023-04-24T10:40:12;3.30;99.90
23188;DHT22;11762;59.878;17.686;2023-04-24T10:42:47;3.40;99.90
23188;DHT22;11762;59.878;17.686;2023-04-24T10:45:17;3.40;99.90
23188;DHT22;11762;59.878;17.686;2023-04-24T10:48:03;3.50;99.90
23188;DHT22;11762;59.878;17.686;2023-04-24T10:50:43;3.40;99.90
23188;DHT22;11762;59.878;17.686;2023-04-24T10:53:15;3.30;99.90
23188;DHT22;11762;59.878;17.686;2023-04-24T10:55:45;3.30;99.90
23188;DHT22;11762;59.878;17.686;2023-04-24T10:58:12;3.20;99.90
23188;DHT22;11762;59.878;17.686;2023-04-24T11:00:41;3.40;99.90
23188;DHT22;11762;59.878;17.686;2023-04-24T11:03:25;3.40;99.90
23188;DHT22;11762;59.878;17.686;2023-04-24T11:05:57;3.60;99.90
23188;DHT22;11762;59.878;17.686;2023-04-24T11:08:27;3.50;99.90
23188;DHT22;11762;59.878;17.686;2023-04-24T11:10:57;3.60;99.90
23188;DHT22;11762;59.878;17.686;2023-04-24T11:13:25;3.70;99.90
23188;DHT22;11762;59.878;17.686;2023-04-24T11:16:14;3.80;99.90
23188;DHT22;11762;59.878;17.686;2023-04-24T11:18:43;3.80;99.90
23188;DHT22;11762;59.878;17.686;2023-04-24T11:21:17;3.70;99.90
23188;DHT22;11762;59.878;17.686;2023-04-24T11:23:45;3.70;99.90
23188;DHT22;11762;59.878;17.686;2023-04-24T11:26:13;3.70;99.90
23188;DHT22;11762;59.878;17.686;2023-04-24T11:28:47;3.60;99.90
23188;DHT22;11762;59.878;17.686;2023-04-24T11:31:34;3.60;99.90
23188;DHT22;11762;59.878;17.686;2023-04-24T11:34:10;3.60;99.90
23188;DHT22;11762;59.878;17.686;2023-04-24T11:36:38;3.50;99.90
23188;DHT22;11762;59.878;17.686;2023-04-24T11:39:06;3.50;99.90
23188;DHT22;11762;59.878;17.686;2023-04-24T11:41:33;3.50;99.90
23188;DHT22;11762;59.878;17.686;2023-04-24T11:44:01;3.60;99.90
23188;DHT22;11762;59.878;17.686;2023-04-24T11:46:29;3.60;99.90
23188;DHT22;11762;59.878;17.686;2023-04-24T11:48:58;3.70;99.90
23188;DHT22;11762;59.878;17.686;2023-04-24T11:51:27;3.70;99.90
23188;DHT22;11762;59.878;17.686;2023-04-24T11:53:55;3.90;99.90
23188;DHT22;11762;59.878;17.686;2023-04-24T11:56:22;3.80;99.90
23188;DHT22;11762;59.878;17.686;2023-04-24T11:58:52;3.50;99.90
23188;DHT22;11762;59.878;17.686;2023-04-24T12:01:19;3.50;99.90
23188;DHT22;11762;59.878;17.686;2023-04-24T12:03:48;3.50;99.90
23188;DHT22;11762;59.878;17.686;2023-04-24T12:06:17;3.60;99.90
23188;DHT22;11762;59.878;17.686;2023-04-24T12:08:47;3.70;99.90
23188;DHT22;11762;59.878;17.686;2023-04-24T12:11:16;3.70;99.90
23188;DHT22;11762;59.878;17.686;2023-04-24T12:13:46;3.50;99.90
23188;DHT22;11762;59.878;17.686;2023-04-24T12:16:13;3.60;99.90
23188;DHT22;11762;59.878;17.686;2023-04-24T12:18:44;3.70;99.90
23188;DHT22;11762;59.878;17.686;2023-04-24T12:21:18;3.70;99.90
23188;DHT22;11762;59.878;17.686;2023-04-24T12:23:48;3.70;99.90
23188;DHT22;11762;59.878;17.686;2023-04-24T12:26:17;3.80;99.90
23188;DHT22;11762;59.878;17.686;2023-04-24T12:28:47;3.70;99.90
23188;DHT22;11762;59.878;17.686;2023-04-24T12:31:14;3.70;99.90
23188;DHT22;11762;59.878;17.686;2023-04-24T12:33:41;3.70;99.90
23188;DHT22;11762;59.878;17.686;2023-04-24T12:36:10;3.80;99.90
23188;DHT22;11762;59.878;17.686;2023-04-24T12:38:38;3.80;99.90
23188;DHT22;11762;59.878;17.686;2023-04-24T12:41:09;3.80;99.90
23188;DHT22;11762;59.878;17.686;2023-04-24T12:43:37;3.70;99.90
23188;DHT22;11762;59.878;17.686;2023-04-24T12:46:04;3.90;99.90
23188;DHT22;11762;59.878;17.686;2023-04-24T12:48:31;3.80;99.90
23188;DHT22;11762;59.878;17.686;2023-04-24T12:50:59;3.90;99.90
23188;DHT22;11762;59.878;17.686;2023-04-24T12:53:27;3.90;99.90
23188;DHT22;11762;59.878;17.686;2023-04-24T12:55:56;3.70;99.90
23188;DHT22;11762;59.878;17.686;2023-04-24T12:58:25;3.80;99.90
23188;DHT22;11762;59.878;17.686;2023-04-24T13:00:52;3.70;99.90
23188;DHT22;11762;59.878;17.686;2023-04-24T13:03:20;3.70;99.90
23188;DHT22;11762;59.878;17.686;2023-04-24T13:05:48;3.70;99.90
23188;DHT22;11762;59.878;17.686;2023-04-24T13:08:15;3.70;99.90
23188;DHT22;11762;59.878;17.686;2023-04-24T13:10:42;3.70;99.90
23188;DHT22;11762;59.878;17.686;2023-04-24T13:13:09;3.70;99.90
23188;DHT22;11762;59.878;17.686;2023-04-24T13:15:37;3.60;99.90
23188;DHT22;11762;59.878;17.686;2023-04-24T13:18:04;3.70;99.90
23188;DHT22;11762;59.878;17.686;2023-04-24T13:20:32;3.90;99.90
23188;DHT22;11762;59.878;17.686;2023-04-24T13:23:01;3.90;99.90
23188;DHT22;11762;59.878;17.686;2023-04-24T13:25:30;3.90;99.90
23188;DHT22;11762;59.878;17.686;2023-04-24T13:27:57;4.00;99.90
23188;DHT22;11762;59.878;17.686;2023-04-24T13:30:24;4.00;99.90
23188;DHT22;11762;59.878;17.686;2023-04-24T13:32:52;3.90;99.90
23188;DHT22;11762;59.878;17.686;2023-04-24T13:35:20;3.90;99.90
23188;DHT22;11762;59.878;17.686;2023-04-24T13:37:47;3.80;99.90
23188;DHT22;11762;59.878;17.686;2023-04-24T13:40:14;3.70;99.90
23188;DHT22;11762;59.878;17.686;2023-04-24T13:42:41;3.70;99.90
23188;DHT22;11762;59.878;17.686;2023-04-24T13:45:09;3.80;99.90
23188;DHT22;11762;59.878;17.686;2023-04-24T13:47:36;3.80;99.90
23188;DHT22;11762;59.878;17.686;2023-04-24T13:50:08;3.70;99.90
23188;DHT22;11762;59.878;17.686;2023-04-24T13:52:35;3.70;99.90
23188;DHT22;11762;59.878;17.686;2023-04-24T13:55:02;3.80;99.90
23188;DHT22;11762;59.878;17.686;2023-04-24T13:57:30;3.80;99.90
23188;DHT22;11762;59.878;17.686;2023-04-24T13:59:58;3.90;99.90
23188;DHT22;11762;59.878;17.686;2023-04-24T14:02:27;3.80;99.90
23188;DHT22;11762;59.878;17.686;2023-04-24T14:04:54;3.90;99.90
23188;DHT22;11762;59.878;17.686;2023-04-24T14:07:22;3.90;99.90
23188;DHT22;11762;59.878;17.686;2023-04-24T14:09:49;3.80;99.90
23188;DHT22;11762;59.878;17.686;2023-04-24T14:12:17;3.80;99.90
23188;DHT22;11762;59.878;17.686;2023-04-24T14:14:46;3.70;99.90
23188;DHT22;11762;59.878;17.686;2023-04-24T14:17:13;3.60;99.90
23188;DHT22;11762;59.878;17.686;2023-04-24T14:19:40;3.70;99.90
23188;DHT22;11762;59.878;17.686;2023-04-24T14:22:07;3.70;99.90
23188;DHT22;11762;59.878;17.686;2023-04-24T14:24:37;3.70;99.90
23188;DHT22;11762;59.878;17.686;2023-04-24T14:27:05;3.60;99.90
23188;DHT22;11762;59.878;17.686;2023-04-24T14:29:32;3.60;99.90
23188;DHT22;11762;59.878;17.686;2023-04-24T14:31:59;3.60;99.90
23188;DHT22;11762;59.878;17.686;2023-04-24T14:34:26;3.50;99.90
23188;DHT22;11762;59.878;17.686;2023-04-24T14:36:53;3.50;99.90
23188;DHT22;11762;59.878;17.686;2023-04-24T14:39:20;3.50;99.90
23188;DHT22;11762;59.878;17.686;2023-04-24T14:41:49;3.50;99.90
23188;DHT22;11762;59.878;17.686;2023-04-24T14:44:16;3.50;99.90
23188;DHT22;11762;59.878;17.686;2023-04-24T14:46:43;3.50;99.90
23188;DHT22;11762;59.878;17.686;2023-04-24T14:49:10;3.50;99.90
23188;DHT22;11762;59.878;17.686;2023-04-24T14:51:38;3.60;99.90
23188;DHT22;11762;59.878;17.686;2023-04-24T14:54:06;3.50;99.90
23188;DHT22;11762;59.878;17.686;2023-04-24T14:56:33;3.50;99.90
23188;DHT22;11762;59.878;17.686;2023-04-24T14:59:02;3.50;99.90
23188;DHT22;11762;59.878;17.686;2023-04-24T15:01:29;3.50;99.90
23188;DHT22;11762;59.878;17.686;2023-04-24T15:03:56;3.50;99.90
23188;DHT22;11762;59.878;17.686;2023-04-24T15:06:23;3.50;99.90
23188;DHT22;11762;59.878;17.686;2023-04-24T15:08:50;3.60;99.90
23188;DHT22;11762;59.878;17.686;2023-04-24T15:11:17;3.50;99.90
23188;DHT22;11762;59.878;17.686;2023-04-24T15:13:45;3.40;99.90
23188;DHT22;11762;59.878;17.686;2023-04-24T15:16:13;3.30;99.90
23188;DHT22;11762;59.878;17.686;2023-04-24T15:18:41;3.40;99.90
23188;DHT22;11762;59.878;17.686;2023-04-24T15:21:08;3.30;99.90
23188;DHT22;11762;59.878;17.686;2023-04-24T15:23:35;3.40;99.90
23188;DHT22;11762;59.878;17.686;2023-04-24T15:26:02;3.40;99.90
23188;DHT22;11762;59.878;17.686;2023-04-24T15:28:29;3.30;99.90
23188;DHT22;11762;59.878;17.686;2023-04-24T15:30:56;3.40;99.90
23188;DHT22;11762;59.878;17.686;2023-04-24T15:33:25;3.50;99.90
23188;DHT22;11762;59.878;17.686;2023-04-24T15:35:52;3.50;99.90